VV02 weather

Bien Hoa Air Base
Bien Hoa, Dong Nai Province, Vietnam

Public forecast

Using degrees Celsius for public forecast. Weather courtesy of forecast.io.

METAR (pilot weather report)

Closest report is Tan Son Nhat International Airport, 13.6 nm (25.2 km) SW. Retrieved 2019/04/24 00:00 UTC (5 minutes ago):

VVTS 240000Z 12009KT 9999 FEW017 30/26 Q1009 NOSIG

TAF (pilot weather forecast)

Forecast is more than 12 hours old.

Closest forecast is Tan Son Nhat International Airport, 13.6 nm (25.2 km) SW. Retrieved 2019/04/23 00:36 UTC (23 hours ago):

TAF VVTS 232300Z 2400/2506 13010KT 9999 SCT017